ADDS TAF Board (Experimental) INFO Settings
IDs: Format: Expanded Condensed

KCVG - Cincinnati Intl, KY, US

Issued at 2331 UTC 04 Aug 2015
Updated at: 0218 UTC 05 Aug 2015
Time0152Z 05/03Z 05/04Z 05/05Z 05/06Z 05/07Z 05/08Z 05/09Z 05/10Z 05/11Z 05/12Z 05/13Z 05/14Z 05/15Z
Type OBS PRVL PRVL PRVL PRVL PRVL PRVL PRVL PRVL PRVL PRVL PRVL PRVL PRVL
VIS 10 >6 >6 >6 >6 >6 >6 >6 >6 >6 >6 >6 >6 >6
CIG 110 250 250 250 250 250 250 250 250 250 250 -- -- --
Cover OVC BKN BKN BKN BKN BKN BKN BKN BKN BKN BKN SCT SCT SCT
FltCat VFR VFR VFR VFR VFR VFR VFR VFR VFR VFR VFR VFR VFR VFR
WX -- -- -- -- -- -- -- -- -- -- -- -- -- --
WDir 210 VRB VRB VRB VRB VRB VRB VRB VRB VRB VRB 30 30 30
WSpd 3 4 4 4 4 4 4 4 4 4 4 4 4 4
WGst -- -- -- -- -- -- -- -- -- -- -- -- -- --
R09/27
XWnd -3 VRB VRB VRB VRB VRB VRB VRB VRB VRB VRB 3 3 3
HWnd -1 VRB VRB VRB VRB VRB VRB VRB VRB VRB VRB 2 2 2
R18/36
XWnd -1 VRB VRB VRB VRB VRB VRB VRB VRB VRB VRB 2 2 2
HWnd 3 VRB VRB VRB VRB VRB VRB VRB VRB VRB VRB -3 -3 -3

NOTE: TEMPO conditions in [brackets]. Keep in mind TEMPO conditions might be better (lower impact) than prevailing conditions.

Raw TAF
KCVG 042331Z 0500/0606 VRB04KT P6SM SCT100 BKN250
  FM051300 03004KT P6SM SCT150 SCT250
  FM051800 32004KT P6SM BKN120
  FM060000 06007KT P6SM BKN120


Raw METAR
KCVG 050152Z 21003KT 10SM BKN110 OVC200 22/17 A3003 RMK AO2 SLP161 T02170172
KCVG 050052Z 25004KT 10SM FEW040 BKN150 OVC250 22/17 A3000 RMK AO2 SLP151 T02220167
KCVG 042352Z 35004KT 10SM FEW030 BKN110 BKN150 26/17 A2998 RMK AO2 SLP143 T02560167 10294 20256 58001

METAR Board
Radar Display
Forecast Discussion

TAF Board Legend

Potential Impact
Threat None Slight Moderate High
Visibility (sm) ≥5.1 5.1>X≥3 3>X≥1 <1
Ceiling (100 ft) ≥30.1 30.1>X≥10 10>X≥5 <5
Wind Speed (kt) <10 10≤X<20 20≤X<30 ≥30
Wind Gust (kt) <15 15≤X<25 25≤X<35 ≥35
Weather No Wx Reported VCTS,-TS,-FZRA,SN TS,FZRA +TS,+FZRA,+SN